Vremea mâine în Petrila - Romania

Vrei sa afli care e starea vremii acum in Mehedinti - Romania? Dorim sa iti furnizam starea vremii pentru Mehedinti - Romania. Starea vremii Mehedinti - Romania pentru astazi.

Vremea mâine în Petrila

Temperatura minimă:
5.1 °C

Temperatura maximă:
21.2 °C

Mâine va fi: Patchy rain nearby
Precipitații: 88 %
Umiditate: 66%
Viteza maximă vânt mâine:
9.4 km/h

Evoluția vremii in Petrila pe ore mâine

Ora: 03:00
Temperatura: °C
Sansa de precipitatii: %
Ora Descriere Temp Se simte Precipitatii Umiditate Vant
00:00Senin6.4°5.5°0%88%E 5.4 KM/H
01:00Senin6.2°5.3°0%88%E 5.4 KM/H
02:00Patchy rain nearby4.9°71%88%E 5.8 KM/H
03:00Senin5.7°4.8°0%88%E 5 KM/H
04:00Senin5.5°4.5°0%87%E 5.4 KM/H
05:00Senin5.3°4.3°0%87%E 5.4 KM/H
06:00Senin5.1°4.2°0%85%E 5 KM/H
07:00Senin5.2°0%82%E 5 KM/H
08:00Senin12.3°12.8°0%70%ESE 3.6 KM/H
09:00Senin16.1°16.1°0%56%S 4 KM/H
10:00Senin17.9°17.9°0%47%SSW 5.8 KM/H
11:00Patchy rain nearby19.2°19.2°67%42%SSW 7.2 KM/H
12:00Patchy rain nearby20.1°20.1°72%37%SW 7.9 KM/H
13:00Patchy rain nearby20.8°20.8°71%34%SW 8.6 KM/H
14:00Patchy rain nearby21.2°21.2°82%33%SW 9.4 KM/H
15:00Patchy rain nearby21.2°21.2°83%34%SW 8.6 KM/H
16:00Patchy rain nearby20.9°20.9°100%36%SW 7.6 KM/H
17:00Patchy rain nearby19.8°19.9°100%42%W 7.9 KM/H
18:00Patchy rain nearby18.4°18.4°100%52%W 5.4 KM/H
19:00Patchy rain nearby15.8°15.8°100%68%W 1.4 KM/H
20:00Patchy rain nearby11°11°100%75%S 1.4 KM/H
21:00Patchy rain nearby8.1°8.3°100%84%ESE 3.2 KM/H
22:00Senin7.4°6.8°0%86%E 5 KM/H
23:00Senin6.8°5.9°0%87%E 5.8 KM/H




tutorials